createdAt,value
2018-08-27T00:00:31.820Z,57.28
2018-08-27T00:03:01.052Z,57.26
2018-08-27T00:05:30.298Z,57.13
2018-08-27T00:07:59.512Z,58.68
2018-08-27T00:10:28.760Z,59.01
2018-08-27T00:12:58.052Z,59.22
2018-08-27T00:15:27.284Z,60.36
2018-08-27T00:17:56.544Z,59.43
2018-08-27T00:20:25.762Z,60.57
2018-08-27T00:22:55.014Z,60.45
2018-08-27T00:25:24.277Z,61.43
2018-08-27T00:27:53.510Z,61.31
2018-08-27T00:30:22.761Z,62.06
2018-08-27T00:32:52.017Z,62.38
2018-08-27T00:35:21.270Z,62.54
2018-08-27T00:37:50.633Z,62.74
2018-08-27T00:40:19.910Z,62.58
2018-08-27T00:42:49.206Z,63.07
2018-08-27T00:45:18.521Z,63.42
2018-08-27T00:47:47.873Z,60.16
2018-08-27T00:50:17.138Z,61.97
2018-08-27T00:52:46.389Z,62.08
2018-08-27T00:55:15.613Z,63.75
2018-08-27T00:57:44.855Z,63.97
2018-08-27T01:00:14.137Z,64.47
2018-08-27T01:02:43.389Z,64.36
2018-08-27T01:05:12.634Z,63.58
2018-08-27T01:07:41.897Z,63.09
2018-08-27T01:10:11.115Z,62.79
2018-08-27T01:12:40.477Z,62.13
2018-08-27T01:15:10.049Z,63.19
2018-08-27T01:17:39.281Z,63.66
2018-08-27T01:20:08.521Z,63.24
2018-08-27T01:22:37.853Z,64.00
2018-08-27T01:25:07.477Z,63.79
2018-08-27T01:27:36.993Z,63.83
2018-08-27T01:30:06.269Z,64.18
2018-08-27T01:32:35.510Z,63.68
2018-08-27T01:35:04.761Z,62.98
2018-08-27T01:37:33.989Z,63.93
2018-08-27T01:40:03.257Z,62.16
2018-08-27T01:42:32.524Z,62.81
2018-08-27T01:45:01.797Z,62.43
2018-08-27T01:47:31.062Z,61.72
2018-08-27T01:50:00.298Z,61.35
2018-08-27T01:52:29.545Z,61.10
2018-08-27T01:54:58.829Z,62.15
2018-08-27T01:57:28.126Z,62.76
2018-08-27T01:59:57.410Z,61.85
2018-08-27T02:02:26.640Z,60.02
2018-08-27T02:04:55.890Z,58.81
2018-08-27T02:07:25.130Z,57.59
2018-08-27T02:09:54.390Z,56.36
2018-08-27T02:12:23.627Z,56.73
2018-08-27T02:14:52.919Z,57.20
2018-08-27T02:17:22.231Z,57.89
2018-08-27T02:19:51.549Z,58.02
2018-08-27T02:22:20.809Z,59.27
2018-08-27T02:24:50.096Z,59.91
2018-08-27T02:27:19.418Z,59.19
2018-08-27T02:29:48.723Z,59.06
2018-08-27T02:32:18.086Z,59.54
2018-08-27T02:34:47.393Z,60.75
2018-08-27T02:37:16.639Z,59.09
2018-08-27T02:39:45.909Z,59.22
2018-08-27T02:42:15.174Z,59.35
2018-08-27T02:44:44.403Z,58.17
2018-08-27T02:47:13.638Z,54.39
2018-08-27T02:49:42.865Z,53.10
2018-08-27T02:52:12.089Z,52.61
2018-08-27T02:54:41.417Z,51.71
2018-08-27T02:57:10.759Z,50.88
2018-08-27T02:59:40.010Z,50.30
2018-08-27T03:02:12.110Z,49.87
2018-08-27T03:04:41.337Z,49.41
2018-08-27T03:07:11.344Z,50.00
2018-08-27T03:09:40.562Z,49.33
2018-08-27T03:12:11.825Z,49.35
2018-08-27T03:14:41.047Z,49.82
2018-08-27T03:17:10.287Z,49.66
2018-08-27T03:19:39.550Z,49.63
2018-08-27T03:22:08.750Z,50.04
2018-08-27T03:24:38.088Z,50.04
2018-08-27T03:27:07.381Z,49.81
2018-08-27T03:29:36.727Z,50.37
2018-08-27T03:32:07.049Z,50.78
2018-08-27T03:34:36.348Z,50.18
2018-08-27T03:37:05.901Z,49.96
2018-08-27T03:39:35.101Z,50.36
2018-08-27T03:42:04.330Z,49.34
2018-08-27T03:44:33.569Z,48.82
2018-08-27T03:47:02.813Z,48.79
2018-08-27T03:49:32.103Z,48.07
2018-08-27T03:52:01.371Z,48.41
2018-08-27T03:54:30.616Z,49.15
2018-08-27T03:56:59.859Z,48.05
2018-08-27T03:59:29.089Z,48.09
2018-08-27T04:01:58.419Z,47.98
2018-08-27T04:04:27.673Z,47.84
2018-08-27T04:06:57.099Z,47.58
2018-08-27T04:09:26.336Z,48.16
2018-08-27T04:11:55.595Z,48.12
2018-08-27T04:14:24.853Z,48.09
2018-08-27T04:16:54.203Z,48.14
2018-08-27T04:19:23.502Z,48.35
2018-08-27T04:21:52.763Z,48.02
2018-08-27T04:24:22.040Z,48.33
2018-08-27T04:26:51.329Z,48.25
2018-08-27T04:29:20.646Z,48.45
2018-08-27T04:31:49.898Z,48.00
2018-08-27T04:34:19.282Z,48.87
2018-08-27T04:36:48.512Z,49.42
2018-08-27T04:39:17.768Z,49.37
2018-08-27T04:41:47.037Z,49.84
2018-08-27T04:44:16.310Z,49.28
2018-08-27T04:46:45.555Z,49.97
2018-08-27T04:49:14.799Z,50.38
2018-08-27T04:51:44.086Z,49.86
2018-08-27T04:54:13.362Z,51.32
2018-08-27T04:56:43.690Z,50.12
2018-08-27T04:59:13.786Z,50.91
2018-08-27T05:01:43.044Z,49.58
2018-08-27T05:04:12.307Z,49.09
2018-08-27T05:06:41.569Z,50.32
2018-08-27T05:09:11.758Z,50.61
2018-08-27T05:11:41.067Z,50.74
2018-08-27T05:14:11.523Z,51.11
2018-08-27T05:16:41.110Z,51.52
2018-08-27T05:19:10.582Z,49.09
2018-08-27T05:21:39.778Z,49.60
2018-08-27T05:24:09.021Z,51.40
2018-08-27T05:26:38.335Z,50.36
2018-08-27T05:29:07.669Z,49.87
2018-08-27T05:31:36.959Z,51.41
2018-08-27T05:34:06.418Z,50.64
2018-08-27T05:36:35.653Z,51.43
2018-08-27T05:39:07.332Z,51.44
2018-08-27T05:41:36.741Z,49.28
2018-08-27T05:44:06.038Z,48.90
2018-08-27T05:46:35.349Z,51.34
2018-08-27T05:49:04.758Z,48.57
2018-08-27T05:51:34.175Z,48.26
2018-08-27T05:54:03.567Z,49.56
2018-08-27T05:56:32.839Z,49.28
2018-08-27T05:59:02.128Z,48.75
2018-08-27T06:01:31.507Z,49.49
2018-08-27T06:04:00.775Z,49.67
2018-08-27T06:06:30.025Z,49.14
2018-08-27T06:09:08.605Z,48.62
2018-08-27T06:11:38.850Z,49.52
2018-08-27T06:14:08.190Z,48.81
2018-08-27T06:16:37.545Z,48.16
2018-08-27T06:19:07.078Z,47.68
2018-08-27T06:21:36.338Z,45.50
2018-08-27T06:24:05.683Z,45.11
2018-08-27T06:26:35.005Z,45.95
2018-08-27T06:29:04.355Z,45.95
2018-08-27T06:31:33.648Z,45.68
2018-08-27T06:34:02.930Z,46.44
2018-08-27T06:36:32.309Z,46.64
2018-08-27T06:39:01.562Z,46.83
2018-08-27T06:41:30.840Z,46.02
2018-08-27T06:44:00.186Z,45.65
2018-08-27T06:46:29.453Z,45.26
2018-08-27T06:48:58.723Z,45.34
2018-08-27T06:51:28.010Z,45.06
2018-08-27T06:53:57.359Z,45.02
2018-08-27T06:56:26.614Z,44.97
2018-08-27T06:58:55.858Z,45.37
2018-08-27T07:01:25.136Z,46.15
2018-08-27T07:03:54.367Z,45.63
2018-08-27T07:06:23.664Z,45.00
2018-08-27T07:08:52.926Z,44.64
2018-08-27T07:11:22.235Z,45.34
2018-08-27T07:13:51.481Z,44.86
2018-08-27T07:16:20.764Z,44.66
2018-08-27T07:18:49.798Z,44.75
2018-08-27T07:21:19.117Z,45.67
2018-08-27T07:23:48.363Z,45.06
2018-08-27T07:26:17.633Z,45.08
2018-08-27T07:28:46.911Z,44.75
2018-08-27T07:31:16.230Z,44.69
2018-08-27T07:33:45.525Z,44.59
2018-08-27T07:36:14.957Z,44.58
2018-08-27T07:38:44.144Z,44.49
2018-08-27T07:41:13.470Z,45.25
2018-08-27T07:43:42.722Z,44.97
2018-08-27T07:46:12.047Z,47.30
2018-08-27T07:48:41.289Z,49.76
2018-08-27T07:51:10.674Z,48.88
2018-08-27T07:53:40.147Z,47.78
2018-08-27T07:56:09.410Z,47.23
2018-08-27T07:58:38.712Z,47.86
2018-08-27T08:01:08.002Z,47.92
2018-08-27T08:03:37.301Z,46.53
2018-08-27T08:06:06.671Z,46.57
2018-08-27T08:08:35.941Z,47.17
2018-08-27T08:11:05.188Z,48.03
2018-08-27T08:13:34.467Z,47.44
2018-08-27T08:16:03.825Z,46.77
2018-08-27T08:18:33.142Z,46.17
2018-08-27T08:21:02.492Z,46.54
2018-08-27T08:23:31.863Z,46.29
2018-08-27T08:26:01.266Z,45.65
2018-08-27T08:28:30.559Z,46.17
2018-08-27T08:30:59.753Z,47.20
2018-08-27T08:33:28.990Z,47.15
2018-08-27T08:35:58.201Z,47.10
2018-08-27T08:38:27.475Z,48.07
2018-08-27T08:40:56.760Z,48.77
2018-08-27T08:43:26.042Z,47.96
2018-08-27T08:45:55.306Z,47.59
2018-08-27T08:48:24.575Z,48.26
2018-08-27T08:50:53.843Z,47.70
2018-08-27T08:53:23.222Z,47.44
2018-08-27T08:55:52.397Z,47.31
2018-08-27T08:58:21.695Z,47.11
2018-08-27T09:00:50.962Z,46.04
2018-08-27T09:03:20.301Z,45.65
2018-08-27T09:05:49.566Z,46.30
2018-08-27T09:08:19.024Z,46.20
2018-08-27T09:10:48.137Z,47.70
2018-08-27T09:13:17.425Z,51.46
2018-08-27T09:15:46.783Z,53.72
2018-08-27T09:18:18.115Z,54.11
2018-08-27T09:20:47.429Z,54.17
2018-08-27T09:23:16.747Z,54.98
2018-08-27T09:25:46.070Z,56.00
2018-08-27T09:28:15.335Z,55.39
2018-08-27T09:30:44.617Z,56.45
2018-08-27T09:33:13.983Z,55.89
2018-08-27T09:35:43.281Z,55.26
2018-08-27T09:38:12.598Z,55.06
2018-08-27T09:40:41.838Z,54.72
2018-08-27T09:43:11.103Z,54.81
2018-08-27T09:45:40.374Z,54.54
2018-08-27T09:48:09.657Z,53.99
2018-08-27T09:50:38.971Z,53.76
2018-08-27T09:53:09.030Z,54.50
2018-08-27T09:55:38.322Z,55.00
2018-08-27T09:58:07.614Z,54.66
2018-08-27T10:00:42.181Z,53.33
2018-08-27T10:03:11.503Z,54.02
2018-08-27T10:05:40.796Z,53.94
2018-08-27T10:08:10.087Z,51.84
2018-08-27T10:10:39.491Z,50.68
2018-08-27T10:13:08.892Z,50.56
2018-08-27T10:15:38.195Z,51.92
2018-08-27T10:18:07.482Z,50.10
2018-08-27T10:20:36.830Z,50.51
2018-08-27T10:23:06.219Z,49.24
2018-08-27T10:25:35.725Z,48.56
2018-08-27T10:28:05.187Z,48.95
2018-08-27T10:30:34.442Z,48.90
2018-08-27T10:33:04.350Z,48.13
2018-08-27T10:35:33.697Z,48.29
2018-08-27T10:38:02.909Z,48.50
2018-08-27T10:40:32.650Z,46.96
2018-08-27T10:43:01.897Z,47.01
2018-08-27T10:45:31.156Z,47.29
2018-08-27T10:48:00.406Z,46.70
2018-08-27T10:50:29.700Z,46.60
2018-08-27T10:52:58.935Z,47.02
2018-08-27T10:55:28.170Z,45.27
2018-08-27T10:57:57.406Z,43.21
2018-08-27T11:00:26.659Z,43.68
2018-08-27T11:02:55.892Z,41.96
2018-08-27T11:05:25.147Z,41.93
2018-08-27T11:07:54.600Z,41.44
2018-08-27T11:10:23.887Z,39.67
2018-08-27T11:12:53.178Z,39.65
2018-08-27T11:15:22.541Z,39.49
2018-08-27T11:17:51.845Z,39.11
2018-08-27T11:20:21.240Z,39.73
2018-08-27T11:22:50.410Z,39.79
2018-08-27T11:25:19.682Z,39.36
2018-08-27T11:27:48.971Z,39.52
2018-08-27T11:30:18.312Z,40.71
2018-08-27T11:32:47.624Z,40.06
2018-08-27T11:35:16.878Z,40.83
2018-08-27T11:37:46.123Z,41.69
2018-08-27T11:40:15.396Z,40.68
2018-08-27T11:42:44.620Z,42.41
2018-08-27T11:45:13.853Z,43.26
2018-08-27T11:47:43.152Z,44.16
2018-08-27T11:50:12.539Z,44.92
2018-08-27T11:52:41.718Z,49.05
2018-08-27T11:55:11.769Z,51.60
2018-08-27T11:57:40.850Z,51.62
2018-08-27T12:00:15.544Z,53.05
2018-08-27T12:02:44.959Z,49.87
2018-08-27T12:05:14.250Z,50.78
2018-08-27T12:07:43.619Z,52.31
2018-08-27T12:10:12.902Z,55.17
2018-08-27T12:12:42.158Z,54.86
2018-08-27T12:15:11.427Z,57.52
2018-08-27T12:17:42.717Z,56.65
2018-08-27T12:20:11.977Z,57.59
2018-08-27T12:22:41.231Z,55.55
2018-08-27T12:25:10.482Z,55.60
2018-08-27T12:27:39.735Z,54.75
2018-08-27T12:30:08.996Z,53.82
2018-08-27T12:32:38.253Z,55.70
2018-08-27T12:35:07.832Z,55.12
2018-08-27T12:37:37.160Z,54.94
2018-08-27T12:40:06.714Z,55.46
2018-08-27T12:42:36.087Z,55.93
2018-08-27T12:45:06.311Z,56.24
2018-08-27T12:47:35.715Z,56.46
2018-08-27T12:50:05.082Z,54.96
2018-08-27T12:52:34.389Z,55.63
2018-08-27T12:55:03.682Z,55.31
2018-08-27T12:57:32.948Z,54.10
2018-08-27T13:00:02.392Z,54.36
2018-08-27T13:02:31.783Z,54.73
2018-08-27T13:05:01.197Z,53.56
2018-08-27T13:07:30.619Z,53.48
2018-08-27T13:09:59.590Z,52.89
2018-08-27T13:12:28.906Z,53.44
2018-08-27T13:14:58.176Z,52.75
2018-08-27T13:17:27.431Z,53.05
2018-08-27T13:19:56.708Z,52.92
2018-08-27T13:22:30.369Z,51.56
2018-08-27T13:25:01.444Z,51.97
2018-08-27T13:27:31.414Z,52.84
2018-08-27T13:30:00.997Z,51.05
2018-08-27T13:32:30.229Z,50.92
2018-08-27T13:34:59.497Z,51.05
2018-08-27T13:37:28.838Z,51.46
2018-08-27T13:39:58.153Z,51.71
2018-08-27T13:42:27.368Z,50.75
2018-08-27T13:44:56.698Z,52.19
2018-08-27T13:47:25.951Z,52.22
2018-08-27T13:49:55.211Z,53.53
2018-08-27T13:52:24.501Z,53.26
2018-08-27T13:54:53.746Z,52.31
2018-08-27T13:57:23.010Z,53.80
2018-08-27T13:59:52.271Z,52.78
2018-08-27T14:02:21.553Z,54.23
2018-08-27T14:04:50.845Z,54.29
2018-08-27T14:07:20.155Z,53.49
2018-08-27T14:09:49.431Z,53.46
2018-08-27T14:12:18.706Z,52.70
2018-08-27T14:14:48.052Z,52.63
2018-08-27T14:17:17.371Z,52.38
2018-08-27T14:19:46.803Z,52.76
2018-08-27T14:22:16.084Z,52.41
2018-08-27T14:24:45.350Z,52.28
2018-08-27T14:27:14.522Z,52.04
2018-08-27T14:29:43.796Z,50.79
2018-08-27T14:32:13.098Z,52.61
2018-08-27T14:34:42.450Z,52.57
2018-08-27T14:37:11.780Z,52.57
2018-08-27T14:39:41.074Z,53.05
2018-08-27T14:42:10.360Z,52.22
2018-08-27T14:44:39.717Z,49.87
2018-08-27T14:47:09.042Z,49.71
2018-08-27T14:49:38.447Z,51.22
2018-08-27T14:52:08.153Z,50.51
2018-08-27T14:54:37.526Z,49.00
2018-08-27T14:57:06.767Z,47.84
2018-08-27T14:59:36.207Z,48.14
2018-08-27T15:02:06.155Z,45.99
2018-08-27T15:04:35.542Z,46.72
2018-08-27T15:07:04.780Z,47.58
2018-08-27T15:09:34.160Z,47.98
2018-08-27T15:12:03.534Z,48.85
2018-08-27T15:14:32.937Z,49.04
2018-08-27T15:17:02.409Z,49.70
2018-08-27T15:19:31.578Z,49.35
2018-08-27T15:22:00.839Z,49.25
2018-08-27T15:24:30.788Z,49.95
2018-08-27T15:27:00.067Z,50.07
2018-08-27T15:29:29.410Z,49.29
2018-08-27T15:31:58.722Z,49.15
2018-08-27T15:34:27.798Z,50.27
2018-08-27T15:36:57.050Z,49.69
2018-08-27T15:39:26.321Z,49.74
2018-08-27T15:41:55.638Z,49.52
2018-08-27T15:44:25.074Z,48.76
2018-08-27T15:46:54.287Z,49.10
2018-08-27T15:49:23.564Z,48.91
2018-08-27T15:51:52.823Z,50.28
2018-08-27T15:54:22.086Z,49.79
2018-08-27T15:56:51.366Z,50.52
2018-08-27T15:59:20.674Z,50.76
2018-08-27T16:01:49.960Z,50.04
2018-08-27T16:04:22.747Z,51.20
2018-08-27T16:06:51.952Z,51.09
2018-08-27T16:09:21.196Z,52.08
2018-08-27T16:11:50.526Z,51.39
2018-08-27T16:14:19.825Z,51.56
2018-08-27T16:16:49.101Z,51.28
2018-08-27T16:19:18.378Z,52.02
2018-08-27T16:21:47.662Z,52.56
2018-08-27T16:24:16.946Z,52.44
2018-08-27T16:26:46.209Z,52.46
2018-08-27T16:29:15.429Z,52.36
2018-08-27T16:31:44.637Z,51.83
2018-08-27T16:34:13.869Z,52.74
2018-08-27T16:36:43.169Z,53.13
2018-08-27T16:39:12.501Z,52.54
2018-08-27T16:41:41.502Z,53.50
2018-08-27T16:44:10.778Z,52.94
2018-08-27T16:46:40.042Z,53.85
2018-08-27T16:49:09.066Z,54.33
2018-08-27T16:51:38.402Z,54.91
2018-08-27T16:54:07.775Z,55.55
2018-08-27T16:56:37.127Z,55.76
2018-08-27T16:59:06.493Z,55.92
2018-08-27T17:01:35.900Z,56.29
2018-08-27T17:04:05.198Z,57.08
2018-08-27T17:06:34.307Z,58.46
2018-08-27T17:09:05.257Z,59.21
2018-08-27T17:11:34.487Z,59.90
2018-08-27T17:14:03.847Z,59.69
2018-08-27T17:16:33.144Z,59.32
2018-08-27T17:19:02.401Z,59.92
2018-08-27T17:21:31.664Z,60.64
2018-08-27T17:24:00.930Z,60.70
2018-08-27T17:26:30.277Z,61.25
2018-08-27T17:28:59.596Z,60.56
2018-08-27T17:31:28.875Z,61.05
2018-08-27T17:33:58.138Z,61.24
2018-08-27T17:36:27.399Z,62.15
2018-08-27T17:38:56.653Z,59.93
2018-08-27T17:41:25.916Z,58.99
2018-08-27T17:43:54.939Z,58.17
2018-08-27T17:46:24.209Z,58.50
2018-08-27T17:48:53.466Z,59.19
2018-08-27T17:51:22.829Z,58.91
2018-08-27T17:53:52.134Z,59.41
2018-08-27T17:56:21.399Z,59.75
2018-08-27T17:58:50.790Z,59.77
2018-08-27T18:01:20.084Z,60.00
2018-08-27T18:03:49.332Z,59.89
2018-08-27T18:06:18.852Z,60.17
2018-08-27T18:08:48.113Z,60.73
2018-08-27T18:11:17.618Z,60.50
2018-08-27T18:13:46.946Z,60.47
2018-08-27T18:16:16.213Z,60.65
2018-08-27T18:18:45.488Z,61.34
2018-08-27T18:21:15.778Z,61.28
2018-08-27T18:23:45.045Z,62.01
2018-08-27T18:26:14.378Z,61.93
2018-08-27T18:28:43.666Z,62.08
2018-08-27T18:31:12.946Z,62.49
2018-08-27T18:33:42.211Z,63.82
2018-08-27T18:36:11.462Z,65.01
2018-08-27T18:38:40.711Z,65.93
2018-08-27T18:41:09.994Z,66.23
2018-08-27T18:43:39.294Z,66.22
2018-08-27T18:46:08.842Z,67.06
2018-08-27T18:48:38.237Z,67.34
2018-08-27T18:51:07.478Z,68.38
2018-08-27T18:53:36.796Z,68.97
2018-08-27T18:56:06.111Z,69.36
2018-08-27T18:58:35.500Z,69.88
2018-08-27T19:01:04.814Z,70.02
2018-08-27T19:03:34.157Z,70.61
2018-08-27T19:06:03.496Z,70.97
2018-08-27T19:08:32.885Z,71.41
2018-08-27T19:11:02.197Z,71.57
2018-08-27T19:13:31.442Z,71.89
2018-08-27T19:16:00.774Z,72.67
2018-08-27T19:18:30.111Z,73.22
2018-08-27T19:20:59.383Z,74.07
2018-08-27T19:23:28.675Z,74.85
2018-08-27T19:25:57.922Z,74.86
2018-08-27T19:28:27.165Z,75.75
2018-08-27T19:30:56.409Z,75.64
2018-08-27T19:33:25.717Z,76.40
2018-08-27T19:35:55.137Z,77.22
2018-08-27T19:38:24.303Z,77.62
2018-08-27T19:40:53.629Z,78.01
2018-08-27T19:43:22.954Z,78.34
2018-08-27T19:45:52.282Z,79.23
2018-08-27T19:48:21.474Z,79.61
2018-08-27T19:50:50.481Z,80.01
2018-08-27T19:53:19.706Z,80.59
2018-08-27T19:55:48.937Z,80.94
2018-08-27T19:58:18.205Z,80.37
2018-08-27T20:00:47.422Z,80.67
2018-08-27T20:03:16.717Z,80.90
2018-08-27T20:05:45.978Z,81.42
2018-08-27T20:08:15.260Z,82.12
2018-08-27T20:10:44.558Z,82.22
2018-08-27T20:13:14.553Z,82.57
2018-08-27T20:15:43.870Z,83.43
2018-08-27T20:18:13.171Z,84.19
2018-08-27T20:20:42.452Z,85.02
2018-08-27T20:23:11.680Z,85.73
2018-08-27T20:25:40.923Z,85.96
2018-08-27T20:28:10.170Z,86.73
2018-08-27T20:30:39.474Z,87.04
2018-08-27T20:33:08.858Z,87.59
2018-08-27T20:35:38.126Z,87.73
2018-08-27T20:38:07.437Z,87.79
2018-08-27T20:40:36.761Z,88.62
2018-08-27T20:43:06.115Z,88.96
2018-08-27T20:45:35.836Z,89.34
2018-08-27T20:48:05.311Z,88.63
2018-08-27T20:50:34.596Z,88.34
2018-08-27T20:53:03.951Z,88.96
2018-08-27T20:55:33.295Z,89.98
2018-08-27T20:58:02.667Z,90.70
2018-08-27T21:00:31.923Z,90.40
2018-08-27T21:03:01.212Z,91.18
2018-08-27T21:05:30.423Z,92.35
2018-08-27T21:07:59.741Z,92.40
2018-08-27T21:10:29.115Z,93.00
2018-08-27T21:12:58.357Z,93.09
2018-08-27T21:15:27.618Z,93.42
2018-08-27T21:17:56.854Z,92.92
2018-08-27T21:20:26.204Z,92.63
2018-08-27T21:22:55.482Z,92.78
2018-08-27T21:25:24.678Z,93.31
2018-08-27T21:27:54.014Z,93.22
2018-08-27T21:30:23.327Z,93.62
2018-08-27T21:32:52.660Z,93.92
2018-08-27T21:35:21.971Z,94.13
2018-08-27T21:37:51.231Z,95.15
2018-08-27T21:40:20.570Z,95.62
2018-08-27T21:42:49.814Z,95.02
2018-08-27T21:45:19.716Z,95.44
2018-08-27T21:47:49.023Z,95.32
2018-08-27T21:50:18.143Z,94.52
2018-08-27T21:52:47.446Z,94.80
2018-08-27T21:55:16.755Z,94.24
2018-08-27T21:57:46.083Z,94.27
2018-08-27T22:00:15.351Z,93.68
2018-08-27T22:02:50.829Z,92.72
2018-08-27T22:05:20.334Z,92.91
2018-08-27T22:07:49.560Z,93.03
2018-08-27T22:10:18.898Z,92.72
2018-08-27T22:12:48.156Z,92.68
2018-08-27T22:15:17.355Z,93.36
2018-08-27T22:17:46.644Z,93.60
2018-08-27T22:20:15.880Z,93.99
2018-08-27T22:22:45.222Z,95.33
2018-08-27T22:25:14.490Z,95.60
2018-08-27T22:27:43.715Z,95.29
2018-08-27T22:30:12.922Z,95.57
2018-08-27T22:32:42.187Z,96.12
2018-08-27T22:35:11.487Z,96.25
2018-08-27T22:37:40.741Z,96.25
2018-08-27T22:40:09.962Z,95.12
2018-08-27T22:42:39.238Z,94.69
2018-08-27T22:45:08.498Z,94.03
2018-08-27T22:47:37.814Z,93.93
2018-08-27T22:50:07.290Z,93.54
2018-08-27T22:52:36.658Z,92.78
2018-08-27T22:55:06.005Z,92.42
2018-08-27T22:57:35.277Z,92.77
2018-08-27T23:00:04.550Z,92.91
2018-08-27T23:02:38.936Z,93.02
2018-08-27T23:05:12.095Z,92.40
2018-08-27T23:07:42.238Z,92.82
2018-08-27T23:10:11.574Z,92.36
2018-08-27T23:12:41.144Z,93.05
2018-08-27T23:15:10.346Z,92.43
2018-08-27T23:17:39.572Z,92.70
2018-08-27T23:20:08.846Z,93.20
2018-08-27T23:22:38.135Z,93.28
2018-08-27T23:25:07.369Z,93.55
2018-08-27T23:27:36.750Z,94.10
2018-08-27T23:30:05.991Z,93.72
2018-08-27T23:32:35.269Z,93.86
2018-08-27T23:35:04.542Z,93.23
2018-08-27T23:37:33.817Z,92.86
2018-08-27T23:40:03.084Z,93.21
2018-08-27T23:42:32.337Z,93.34
2018-08-27T23:45:01.587Z,93.65
2018-08-27T23:47:31.282Z,93.39
2018-08-27T23:50:00.575Z,93.58
2018-08-27T23:52:30.092Z,94.18
2018-08-27T23:54:59.266Z,94.43
2018-08-27T23:57:28.595Z,95.15
2018-08-27T23:59:57.885Z,95.48
